Dades de l'estació automàtica Anglès
Resum diari
21:30 TU| Temperatura mitjana | 16.6 °C | |
|---|---|---|
| Temperatura màxima | 23.3 °C | 10:25 TU |
| Temperatura mínima | 12.2 °C | 5:35 TU |
| Humitat relativa mitjana | 86% | |
| Precipitació acumulada | 1.9 mm | |
| Ratxa màxima del vent (10 m) | 27.7 km/h - 144º | 13:06 TU |
| Pressió atmosfèrica mitjana | 1011.5 hPa | |
| Irradiació solar global | 8.8 MJ/m2 | |
El tram horari està expressat en Temps Universal (TU). Cal sumar una hora en horari d'hivern i dues en horari d'estiu per passar a l'hora oficial.
Anglès
| Municipi | Anglès |
|---|---|
| Comarca | Selva |
| Altitud | 151 m |
| Data alta | 10.05.2001 |
| Estat actual | Operativa |
| Període TU |
TM °C |
TX °C |
TN °C |
HRM % |
PPT mm |
VVM (10 m) km/h |
DVM (10 m) graus |
VVX (10 m) km/h |
PM hPa |
RS W/m2 |
|---|---|---|---|---|---|---|---|---|---|---|
| 00:00 - 00:30 | 14.1 | 14.3 | 13.8 | 92 | 0.0 | 0.7 | 258 | 3.6 | 1014.0 | 0 |
| 00:30 - 01:00 | 13.6 | 13.8 | 13.5 | 95 | 0.0 | 0.7 | 350 | 4.0 | 1013.8 | 0 |
| 01:00 - 01:30 | 13.2 | 13.5 | 12.9 | 96 | 0.0 | 0.7 | 308 | 2.9 | 1013.7 | 0 |
| 01:30 - 02:00 | 12.6 | 12.9 | 12.3 | 98 | 0.0 | 2.2 | 326 | 6.8 | 1013.5 | 0 |
| 02:00 - 02:30 | 12.9 | 13.1 | 12.6 | 97 | 0.0 | 2.5 | 86 | 8.6 | 1013.3 | 0 |
| 02:30 - 03:00 | 13.1 | 13.4 | 12.9 | 96 | 0.0 | 4.7 | 93 | 8.6 | 1013.3 | 0 |
| 03:00 - 03:30 | 13.3 | 13.7 | 13.1 | 95 | 0.0 | 2.2 | 82 | 5.0 | 1013.2 | 0 |
| 03:30 - 04:00 | 13.6 | 13.9 | 13.4 | 93 | 0.0 | 0.7 | 77 | 4.3 | 1013.0 | 0 |
| 04:00 - 04:30 | 13.3 | 13.4 | 13.1 | 96 | 0.0 | 0.4 | 75 | 2.2 | 1012.7 | 0 |
| 04:30 - 05:00 | 12.9 | 13.1 | 12.8 | 97 | 0.0 | 1.1 | 93 | 4.0 | 1012.6 | 1 |
| 05:00 - 05:30 | 12.4 | 12.8 | 12.2 | 98 | 0.0 | 0.7 | 88 | 3.2 | 1012.7 | 14 |
| 05:30 - 06:00 | 12.7 | 13.5 | 12.2 | 99 | 0.0 | 0.7 | 60 | 4.0 | 1012.7 | 91 |
| 06:00 - 06:30 | 15.3 | 16.1 | 13.5 | 86 | 0.0 | 0.7 | 82 | 2.9 | 1012.4 | 198 |
| 06:30 - 07:00 | 16.4 | 17.2 | 15.8 | 80 | 0.0 | 4.0 | 99 | 9.4 | 1011.9 | 300 |
| 07:00 - 07:30 | 18.2 | 19.5 | 17.3 | 70 | 0.0 | 6.5 | 111 | 11.5 | 1011.7 | 392 |
| 07:30 - 08:00 | (s/d) | (s/d) | (s/d) | (s/d) | 0.0 | (s/d) | (s/d) | (s/d) | (s/d) | (s/d) |
| 08:00 - 08:30 | (s/d) | (s/d) | (s/d) | (s/d) | 0.0 | (s/d) | (s/d) | (s/d) | (s/d) | (s/d) |
| 08:30 - 09:00 | (s/d) | (s/d) | (s/d) | (s/d) | 0.0 | (s/d) | (s/d) | (s/d) | (s/d) | (s/d) |
| 09:00 - 09:30 | (s/d) | (s/d) | (s/d) | (s/d) | 0.0 | (s/d) | (s/d) | (s/d) | (s/d) | (s/d) |
| 09:30 - 10:00 | 22.3 | 22.8 | 21.8 | 59 | 0.0 | 7.6 | 110 | 19.4 | 1011.0 | 541 |
| 10:00 - 10:30 | 22.8 | 23.3 | 22.1 | 56 | 0.0 | 8.3 | 127 | 18.0 | 1011.0 | 717 |
| 10:30 - 11:00 | 22.5 | 22.8 | 22.2 | 58 | 0.0 | 9.0 | 108 | 18.7 | 1011.0 | 350 |
| 11:00 - 11:30 | 22.2 | 22.9 | 21.9 | 61 | 0.0 | 8.3 | 156 | 20.5 | 1010.9 | 326 |
| 11:30 - 12:00 | 21.2 | 22.3 | 20.9 | 63 | 0.0 | 10.1 | 156 | 20.2 | 1010.7 | 173 |
| 12:00 - 12:30 | 21.1 | 21.4 | 20.6 | 63 | 0.0 | 9.4 | 144 | 20.5 | 1010.7 | 240 |
| 12:30 - 13:00 | 19.9 | 20.5 | 19.1 | 71 | 0.0 | 14.4 | 138 | 26.3 | 1010.6 | 220 |
| 13:00 - 13:30 | 18.7 | 19.0 | 18.4 | 80 | 0.0 | 13.0 | 143 | 27.7 | 1010.7 | 168 |
| 13:30 - 14:00 | 19.1 | 19.5 | 18.7 | 76 | 0.0 | 12.6 | 139 | 24.5 | 1010.5 | 262 |
| 14:00 - 14:30 | 19.3 | 19.6 | 19.1 | 73 | 0.0 | 14.0 | 140 | 25.6 | 1010.3 | 222 |
| 14:30 - 15:00 | 19.1 | 19.3 | 18.6 | 74 | 0.2 | 5.0 | 167 | 17.6 | 1010.3 | 92 |
| 15:00 - 15:30 | 17.7 | 18.6 | 17.0 | 87 | 0.7 | 2.2 | 39 | 10.8 | 1010.6 | 29 |
| 15:30 - 16:00 | 17.0 | 17.3 | 16.8 | 94 | 0.1 | 2.2 | 41 | 7.6 | 1010.7 | 92 |
| 16:00 - 16:30 | 17.1 | 17.3 | 16.9 | 89 | 0.5 | 2.5 | 332 | 6.8 | 1010.8 | 134 |
| 16:30 - 17:00 | 17.5 | 17.7 | 17.3 | 89 | 0.0 | 2.9 | 286 | 7.6 | 1010.4 | 161 |
| 17:00 - 17:30 | 17.5 | 17.7 | 17.3 | 87 | 0.0 | 1.1 | 313 | 5.8 | 1010.1 | 121 |
| 17:30 - 18:00 | 17.2 | 17.8 | 16.9 | 89 | 0.0 | 2.5 | 357 | 6.8 | 1010.0 | 71 |
| 18:00 - 18:30 | 16.7 | 16.9 | 16.3 | 91 | 0.0 | 1.1 | 38 | 5.4 | 1009.8 | 25 |
| 18:30 - 19:00 | 16.1 | 16.3 | 16.1 | 97 | 0.0 | 1.4 | 304 | 4.7 | 1010.1 | 2 |
| 19:00 - 19:30 | 15.8 | 16.2 | 15.5 | 98 | 0.0 | 1.1 | 347 | 4.0 | 1010.5 | 0 |
| 19:30 - 20:00 | 15.5 | 15.5 | 15.4 | 98 | 0.0 | 1.8 | 321 | 4.3 | 1010.9 | 0 |
| 20:00 - 20:30 | 15.4 | 15.6 | 15.2 | 99 | 0.0 | 1.4 | 282 | 3.6 | 1011.1 | 0 |
| 20:30 - 21:00 | 15.2 | 15.3 | 15.1 | 99 | 0.2 | 1.4 | 274 | 5.0 | 1011.6 | 0 |
| 21:00 - 21:30 | 15.0 | 15.2 | 14.6 | 97 | 0.2 | 5.8 | 29 | 18.7 | 1011.7 | 0 |
| 21:30 - 22:00 | 14.8 | 15.3 | 14.2 | 86 | 0.0 | 5.8 | 304 | 11.9 | 1011.2 | 0 |
Les dades en taronja només han passat un control de qualitat automàtic. Resta pendent la seva validació definitiva.